Time;durP1;ratioP1;P1;durP2;ratioP2;P2;SDS_P1;SDS_P2;PMS_P1;PMS_P2;Temp;Humidity;BMP_temperature;BMP_pressure;BME280_temperature;BME280_humidity;BME280_pressure;Samples;Min_cycle;Max_cycle;Signal;HPM_P1;HPM_P2
2022/10/22 00:01:27;;;;;;;12.07;5.57;;;;;;;14.05;45.90;98726.31;4502113;31;20337;-85
2022/10/22 00:03:53;;;;;;;16.25;5.85;;;;;;;14.39;45.40;98726.56;4502147;31;20150;-85
2022/10/22 00:06:18;;;;;;;16.83;5.70;;;;;;;14.31;45.45;98722.69;4499005;31;20115;-85
2022/10/22 00:08:44;;;;;;;13.27;5.30;;;;;;;14.36;45.55;98725.84;4481062;31;20120;-82
2022/10/22 00:11:12;;;;;;;12.18;5.12;;;;;;;14.45;45.51;98723.50;4495561;31;20115;-85
2022/10/22 00:13:37;;;;;;;13.77;5.35;;;;;;;14.30;45.75;98725.44;4494821;31;20100;-84
2022/10/22 00:16:03;;;;;;;16.58;5.85;;;;;;;14.35;45.82;98732.09;4500915;31;20118;-85
2022/10/22 00:18:28;;;;;;;13.35;5.93;;;;;;;14.48;45.76;98725.91;4503384;31;20084;-85
2022/10/22 00:20:54;;;;;;;13.73;6.05;;;;;;;14.25;45.77;98728.41;4503376;31;20080;-84
2022/10/22 00:23:19;;;;;;;13.82;5.65;;;;;;;14.32;45.57;98727.00;4503521;31;20119;-85
2022/10/22 00:25:45;;;;;;;13.62;5.70;;;;;;;14.22;45.56;98730.44;4488938;31;20442;-85
2022/10/22 00:28:13;;;;;;;15.32;6.25;;;;;;;14.23;45.70;98727.66;4503003;31;20092;-85
2022/10/22 00:30:39;;;;;;;13.93;5.70;;;;;;;14.17;45.92;98717.50;4503409;31;20110;-85
2022/10/22 00:33:04;;;;;;;14.98;5.68;;;;;;;14.28;45.66;98719.41;4503326;31;20115;-86
2022/10/22 00:35:30;;;;;;;13.48;5.57;;;;;;;14.32;45.60;98726.19;4503214;31;20091;-85
2022/10/22 00:37:55;;;;;;;14.45;5.87;;;;;;;14.05;46.09;98715.72;4503297;31;20155;-85
2022/10/22 00:40:21;;;;;;;13.48;5.15;;;;;;;14.21;45.86;98707.53;4503122;31;20088;-85
2022/10/22 00:42:49;;;;;;;15.68;5.80;;;;;;;14.23;45.69;98709.09;4503195;31;20156;-84
2022/10/22 00:45:25;;;;;;;13.62;5.10;;;;;;;14.20;46.16;98711.13;4503106;31;20521;-85
2022/10/22 00:48:03;;;;;;;13.93;5.32;;;;;;;14.23;46.01;98702.97;4488847;31;20431;-85
2022/10/22 00:50:37;;;;;;;11.60;5.12;;;;;;;14.31;46.07;98693.53;4503132;31;20172;-85
2022/10/22 00:53:06;;;;;;;14.75;6.25;;;;;;;14.49;45.51;98695.81;4502768;31;20100;-85
2022/10/22 00:55:33;;;;;;;13.98;5.43;;;;;;;14.33;45.63;98691.63;4488858;31;20536;-85
2022/10/22 00:57:58;;;;;;;13.38;5.43;;;;;;;14.14;45.42;98691.25;4503018;31;20597;-85
2022/10/22 01:00:24;;;;;;;12.82;5.65;;;;;;;14.33;45.37;98693.41;4503034;31;20084;-84
2022/10/22 01:02:53;;;;;;;17.90;6.55;;;;;;;14.47;45.20;98703.03;4488709;31;20115;-85
2022/10/22 01:05:19;;;;;;;13.75;5.20;;;;;;;14.19;45.57;98699.69;4488772;31;20103;-84
2022/10/22 01:07:50;;;;;;;15.13;5.65;;;;;;;14.39;44.83;98702.72;4502867;31;21328;-86
2022/10/22 01:10:38;;;;;;;13.65;5.70;;;;;;;14.15;45.64;98707.00;4488766;31;20102;-84
2022/10/22 01:13:48;;;;;;;13.50;5.95;;;;;;;14.17;45.61;98704.25;4488962;31;20104;-85
2022/10/22 01:16:26;;;;;;;14.35;5.87;;;;;;;14.10;46.01;98695.91;4422846;32;20105;-85
2022/10/22 01:19:21;;;;;;;14.87;5.28;;;;;;;13.93;46.17;98702.38;4410418;32;20164;-85
2022/10/22 01:21:56;;;;;;;14.60;5.12;;;;;;;14.01;46.58;98706.31;4377557;32;20113;-85
2022/10/22 01:24:27;;;;;;;14.30;5.47;;;;;;;14.03;46.48;98707.88;4377857;32;20175;-85
2022/10/22 01:27:11;;;;;;;13.82;5.75;;;;;;;14.31;45.84;98692.66;4377306;32;20210;-85
2022/10/22 01:29:38;;;;;;;12.18;5.03;;;;;;;14.20;45.65;98693.44;4377354;32;20850;-85
2022/10/22 01:32:16;;;;;;;12.10;5.70;;;;;;;14.32;45.29;98691.72;4377377;32;20090;-85
2022/10/22 01:34:44;;;;;;;15.27;5.57;;;;;;;14.14;45.94;98702.69;4377382;32;20103;-85
2022/10/22 01:37:11;;;;;;;15.02;6.05;;;;;;;13.91;46.69;98700.81;4377429;32;20110;-85
2022/10/22 01:39:37;;;;;;;15.63;5.53;;;;;;;13.96;46.58;98703.94;4377269;32;20125;-84
2022/10/22 01:42:03;;;;;;;15.65;5.32;;;;;;;14.04;46.48;98711.38;4377366;32;20094;-85
2022/10/22 01:44:30;;;;;;;15.02;5.43;;;;;;;14.20;46.05;98690.81;4364642;32;20165;-85
2022/10/22 01:47:36;;;;;;;15.48;5.45;;;;;;;14.11;46.36;98686.16;4377021;32;20118;-84
2022/10/22 01:50:27;;;;;;;13.85;5.53;;;;;;;14.31;45.35;98682.94;4371627;32;20221;-85
2022/10/22 01:53:10;;;;;;;14.02;5.43;;;;;;;14.29;45.70;98679.56;4413395;32;20126;-84
2022/10/22 01:55:53;;;;;;;13.40;5.12;;;;;;;14.13;45.83;98673.63;4453472;32;20184;-85
2022/10/22 01:58:23;;;;;;;11.70;5.10;;;;;;;14.36;45.61;98661.41;4452968;31;20483;-86
2022/10/22 02:00:59;;;;;;;11.65;4.57;;;;;;;14.42;45.90;98668.91;4502577;31;20361;-84
2022/10/22 02:03:29;;;;;;;13.40;4.90;;;;;;;14.44;45.71;98671.44;4475087;31;20163;-85
2022/10/22 02:05:59;;;;;;;16.25;5.65;;;;;;;14.46;45.49;98667.72;4487069;31;20151;-84
2022/10/22 02:08:28;;;;;;;12.98;4.53;;;;;;;14.16;45.23;98670.78;4487940;31;20100;-84
2022/10/22 02:10:54;;;;;;;11.40;4.85;;;;;;;14.38;44.85;98664.78;4488095;31;20624;-84
2022/10/22 02:13:35;;;;;;;11.77;5.03;;;;;;;14.43;45.14;98670.59;4488206;31;20431;-84
2022/10/22 02:16:02;;;;;;;13.57;5.07;;;;;;;14.49;45.21;98666.66;4502546;31;20130;-84
2022/10/22 02:18:30;;;;;;;11.82;4.87;;;;;;;14.41;44.87;98661.06;4488403;31;20434;-84
2022/10/22 02:20:56;;;;;;;13.70;5.20;;;;;;;14.56;44.66;98670.53;4502723;31;20219;-84
2022/10/22 02:23:22;;;;;;;14.05;5.30;;;;;;;14.57;44.84;98669.63;4488402;31;20084;-84
2022/10/22 02:25:52;;;;;;;11.35;4.87;;;;;;;14.60;45.74;98680.00;4488276;31;20220;-85
2022/10/22 02:28:44;;;;;;;12.85;5.10;;;;;;;14.64;46.02;98684.13;4488340;31;20104;-84
2022/10/22 02:31:16;;;;;;;13.35;5.15;;;;;;;14.63;46.44;98686.91;4493776;31;20084;-83
2022/10/22 02:33:45;;;;;;;15.25;5.50;;;;;;;14.63;46.43;98685.09;4502430;31;20082;-86
2022/10/22 02:36:11;;;;;;;12.65;5.12;;;;;;;14.45;45.15;98673.16;4487936;31;20128;-85
2022/10/22 02:38:37;;;;;;;12.63;5.15;;;;;;;14.55;45.11;98666.22;4487849;31;20116;-85
2022/10/22 02:41:06;;;;;;;13.73;5.12;;;;;;;14.29;45.16;98668.97;4502105;31;20130;-84
2022/10/22 02:43:41;;;;;;;13.77;5.90;;;;;;;14.42;45.03;98676.00;4502037;31;20088;-84
2022/10/22 02:46:07;;;;;;;11.05;4.95;;;;;;;14.25;45.24;98666.63;4502245;31;20167;-84
2022/10/22 02:48:32;;;;;;;12.40;4.80;;;;;;;14.19;45.48;98675.84;4474798;31;20112;-84
2022/10/22 02:50:58;;;;;;;13.05;4.97;;;;;;;14.27;44.93;98684.09;4502277;31;20087;-85
2022/10/22 02:53:23;;;;;;;16.83;5.25;;;;;;;14.22;45.39;98683.59;4502245;31;20404;-84
2022/10/22 02:55:48;;;;;;;13.82;5.07;;;;;;;14.23;45.52;98698.50;4502292;31;20127;-86
2022/10/22 02:58:14;;;;;;;11.25;5.20;;;;;;;14.23;46.05;98689.72;4487486;31;20452;-86
2022/10/22 03:00:39;;;;;;;13.23;5.45;;;;;;;14.20;46.62;98679.34;4487400;31;20114;-86
2022/10/22 03:03:05;;;;;;;12.50;5.35;;;;;;;14.18;46.86;98691.84;4487377;31;20119;-86
2022/10/22 03:05:30;;;;;;;12.32;5.07;;;;;;;14.14;47.12;98699.19;4501660;31;20167;-86
2022/10/22 03:07:55;;;;;;;13.23;5.65;;;;;;;14.11;47.26;98696.75;4501625;31;20444;-86
2022/10/22 03:10:21;;;;;;;15.95;5.97;;;;;;;14.07;47.33;98690.81;4501468;31;20114;-86
2022/10/22 03:12:47;;;;;;;13.27;5.47;;;;;;;14.00;47.35;98699.28;4501621;31;20109;-86
2022/10/22 03:15:12;;;;;;;13.70;5.28;;;;;;;13.98;47.29;98695.91;4501696;31;20120;-85
2022/10/22 03:17:38;;;;;;;14.10;5.47;;;;;;;13.96;47.17;98683.63;4503689;31;20367;-86
2022/10/22 03:20:03;;;;;;;13.60;5.53;;;;;;;13.99;47.06;98681.72;4489614;31;20128;-86
2022/10/22 03:22:30;;;;;;;13.70;5.85;;;;;;;13.90;47.08;98680.56;4489392;31;20125;-87
2022/10/22 03:24:59;;;;;;;14.52;5.70;;;;;;;13.87;47.13;98678.97;4489386;31;20120;-87
2022/10/22 03:27:27;;;;;;;14.15;5.78;;;;;;;13.90;47.02;98677.91;4480616;32;20467;-86
2022/10/22 03:29:56;;;;;;;11.45;5.12;;;;;;;13.86;46.89;98681.72;4491723;31;20095;-86
2022/10/22 03:32:21;;;;;;;14.02;5.60;;;;;;;13.91;46.89;98683.09;4502591;31;20087;-86
2022/10/22 03:34:49;;;;;;;12.02;5.07;;;;;;;13.92;47.19;98671.53;4503551;31;20168;-86
2022/10/22 03:37:15;;;;;;;13.77;5.28;;;;;;;13.85;46.66;98665.00;4503969;31;20095;-87
2022/10/22 03:39:41;;;;;;;14.68;5.70;;;;;;;13.89;46.73;98657.69;4485175;32;20137;-86
2022/10/22 03:42:06;;;;;;;16.65;5.30;;;;;;;13.87;46.55;98647.19;4487759;32;20111;-86
2022/10/22 03:44:33;;;;;;;15.52;5.97;;;;;;;13.83;46.48;98634.25;4473631;32;20135;-85
2022/10/22 03:46:58;;;;;;;13.23;5.32;;;;;;;13.68;47.01;98633.56;4473352;32;20105;-85
2022/10/22 03:49:23;;;;;;;11.88;4.90;;;;;;;13.83;46.73;98627.19;4487817;32;20114;-86
2022/10/22 03:51:49;;;;;;;13.13;5.10;;;;;;;13.86;46.49;98628.78;4493910;31;20114;-86
2022/10/22 03:54:15;;;;;;;13.35;5.82;;;;;;;13.88;46.67;98633.00;4503659;31;20080;-85
2022/10/22 03:56:41;;;;;;;12.07;5.18;;;;;;;13.91;47.02;98630.13;4502606;31;20705;-85
2022/10/22 03:59:06;;;;;;;12.00;5.05;;;;;;;13.91;47.25;98634.59;4503497;31;20080;-86
2022/10/22 04:01:34;;;;;;;12.95;5.68;;;;;;;13.89;47.20;98642.66;4502205;31;20448;-84
2022/10/22 04:03:59;;;;;;;;;;;;;;;13.96;47.15;98646.56;4495760;31;20120;-84
2022/10/22 04:06:25;;;;;;;12.77;5.32;;;;;;;14.02;47.23;98669.09;4486586;32;19994;-83
2022/10/22 04:08:50;;;;;;;12.60;5.32;;;;;;;14.00;47.45;98667.50;4487464;32;20118;-84
2022/10/22 04:11:16;;;;;;;12.77;5.30;;;;;;;13.88;47.66;98666.56;4487420;32;20109;-83
2022/10/22 04:13:42;;;;;;;15.30;5.62;;;;;;;13.91;47.68;98663.72;4486376;32;20794;-84
2022/10/22 04:16:11;;;;;;;14.05;5.45;;;;;;;13.90;47.58;98659.37;4487613;31;20100;-84
2022/10/22 04:18:37;;;;;;;13.75;5.65;;;;;;;13.95;47.56;98660.75;4487613;31;20451;-84
2022/10/22 04:21:03;;;;;;;15.23;5.25;;;;;;;13.92;47.64;98654.81;4487468;31;20458;-84
2022/10/22 04:23:28;;;;;;;13.20;4.85;;;;;;;13.82;47.30;98665.19;4487661;31;20092;-84
2022/10/22 04:25:58;;;;;;;14.82;5.78;;;;;;;13.88;46.66;98663.94;4487454;31;20396;-84
2022/10/22 04:28:24;;;;;;;13.55;5.40;;;;;;;13.90;46.95;98660.22;4485787;32;20163;-84
2022/10/22 04:30:49;;;;;;;14.23;5.53;;;;;;;13.90;46.90;98662.84;4487744;31;20114;-84
2022/10/22 04:33:14;;;;;;;15.32;5.75;;;;;;;13.94;47.06;98658.19;4487578;31;20138;-84
2022/10/22 04:35:40;;;;;;;13.00;5.37;;;;;;;13.91;47.28;98659.28;4487821;32;20093;-84
2022/10/22 04:38:05;;;;;;;13.25;5.45;;;;;;;13.94;47.31;98663.50;4487628;32;20127;-86
2022/10/22 04:40:30;;;;;;;14.25;5.40;;;;;;;13.82;47.44;98653.78;4487630;32;20105;-85
2022/10/22 04:42:56;;;;;;;13.43;5.40;;;;;;;13.85;47.31;98664.12;4487706;32;20119;-85
2022/10/22 04:45:21;;;;;;;14.48;5.53;;;;;;;13.85;47.33;98661.47;4487687;32;20148;-86
2022/10/22 04:47:47;;;;;;;13.65;5.97;;;;;;;13.39;47.08;98662.88;4496698;31;20088;-85
2022/10/22 04:50:12;;;;;;;13.30;5.28;;;;;;;13.72;46.66;98656.22;4503329;31;20160;-85
2022/10/22 04:52:38;;;;;;;14.63;5.10;;;;;;;13.80;46.88;98653.03;4503416;31;20087;-83
2022/10/22 04:55:04;;;;;;;12.73;5.32;;;;;;;13.83;46.89;98643.09;4503387;31;20114;-84
2022/10/22 04:57:30;;;;;;;18.02;6.07;;;;;;;13.82;47.16;98645.81;4488971;31;20072;-83
2022/10/22 04:59:55;;;;;;;15.48;5.72;;;;;;;13.78;46.76;98655.78;4475878;31;20152;-85
2022/10/22 05:02:21;;;;;;;14.65;5.78;;;;;;;13.80;46.66;98653.03;4503231;31;20487;-85
2022/10/22 05:04:49;;;;;;;12.82;5.30;;;;;;;13.68;46.40;98637.06;4488767;31;20096;-84
2022/10/22 05:07:15;;;;;;;15.75;6.05;;;;;;;13.74;46.44;98646.38;4502844;31;20216;-85
2022/10/22 05:09:40;;;;;;;14.07;5.57;;;;;;;13.71;46.94;98641.28;4501211;31;20080;-79
2022/10/22 05:12:05;;;;;;;13.75;5.50;;;;;;;13.73;47.20;98657.91;4489884;31;20129;-90
2022/10/22 05:14:31;;;;;;;13.93;6.22;;;;;;;13.79;47.42;98653.97;4471526;32;20104;-82
2022/10/22 05:16:57;;;;;;;13.57;5.90;;;;;;;13.81;47.53;98649.41;4470806;32;20435;-83
2022/10/22 05:19:26;;;;;;;14.10;6.20;;;;;;;13.76;47.53;98642.66;4485738;32;20096;-82
2022/10/22 05:21:53;;;;;;;14.25;5.40;;;;;;;13.81;47.42;98650.28;4470861;32;20531;-82
2022/10/22 05:24:19;;;;;;;13.55;5.43;;;;;;;13.81;47.34;98647.62;4486337;32;20158;-82
2022/10/22 05:26:44;;;;;;;13.98;6.00;;;;;;;13.85;47.34;98653.53;4485758;32;20504;-82
2022/10/22 05:29:10;;;;;;;17.48;5.47;;;;;;;13.88;47.34;98653.34;4486613;32;20080;-82
2022/10/22 05:31:35;;;;;;;14.63;5.78;;;;;;;13.88;47.35;98651.53;4472876;32;20152;-82
2022/10/22 05:34:01;;;;;;;15.73;6.18;;;;;;;13.77;47.75;98662.00;4487112;32;20455;-83
2022/10/22 05:36:27;;;;;;;13.60;5.50;;;;;;;13.86;47.73;98658.72;4472821;32;20096;-83
2022/10/22 05:38:52;;;;;;;13.07;6.07;;;;;;;13.94;47.64;98663.50;4486964;32;20088;-82
2022/10/22 05:41:21;;;;;;;13.73;6.25;;;;;;;13.96;47.79;98658.94;4486978;32;20084;-81
2022/10/22 05:43:46;;;;;;;14.52;6.35;;;;;;;14.01;47.67;98650.69;4487003;32;20100;-81
2022/10/22 05:46:14;;;;;;;15.05;6.28;;;;;;;13.75;46.51;98646.25;4486848;32;20505;-82
2022/10/22 05:48:39;;;;;;;17.48;6.12;;;;;;;13.86;46.52;98658.72;4472838;32;20081;-81
2022/10/22 05:51:10;;;;;;;15.10;6.22;;;;;;;13.95;46.78;98660.75;4486946;32;20119;-81
2022/10/22 05:53:38;;;;;;;15.82;6.12;;;;;;;13.96;47.37;98656.28;4472610;32;20108;-82
2022/10/22 05:56:06;;;;;;;16.98;6.20;;;;;;;14.07;47.15;98653.72;4487001;32;20113;-82
2022/10/22 05:58:32;;;;;;;13.60;5.95;;;;;;;14.14;47.23;98660.28;4486879;32;20072;-82
2022/10/22 06:01:06;;;;;;;15.07;5.70;;;;;;;14.15;47.59;98661.13;4486987;32;20513;-82
2022/10/22 06:03:32;;;;;;;13.52;5.78;;;;;;;14.24;47.54;98662.28;4446946;32;20105;-81
2022/10/22 06:06:02;;;;;;;12.18;5.68;;;;;;;14.27;47.62;98673.50;4482093;32;156859;-82
2022/10/22 06:08:28;;;;;;;14.18;6.00;;;;;;;14.33;47.78;98675.72;4459352;32;20459;-84
2022/10/22 06:10:54;;;;;;;14.32;6.12;;;;;;;14.32;47.80;98673.19;4472589;32;20780;-83
2022/10/22 06:13:19;;;;;;;15.20;6.07;;;;;;;14.38;47.95;98672.72;4486901;32;20088;-83
2022/10/22 06:15:45;;;;;;;17.08;6.72;;;;;;;14.42;47.93;98681.31;4486804;32;20428;-83
2022/10/22 06:18:11;;;;;;;17.60;8.68;;;;;;;14.46;48.28;98690.72;4472344;32;20451;-83
2022/10/22 06:20:36;;;;;;;23.30;10.27;;;;;;;14.50;48.21;98687.72;4472300;32;20149;-81
2022/10/22 06:23:01;;;;;;;16.83;8.63;;;;;;;14.54;48.25;98688.38;4486610;32;20120;-82
2022/10/22 06:25:27;;;;;;;15.57;6.60;;;;;;;14.65;47.67;98680.50;4486483;32;20076;-82
2022/10/22 06:27:52;;;;;;;15.38;6.75;;;;;;;14.64;46.41;98680.63;4472415;32;20106;-82
2022/10/22 06:30:18;;;;;;;15.32;6.43;;;;;;;14.75;45.96;98670.91;4486271;32;20111;-82
2022/10/22 06:32:43;;;;;;;15.13;7.07;;;;;;;14.84;45.65;98677.34;4472354;32;20382;-82
2022/10/22 06:35:11;;;;;;;16.48;6.60;;;;;;;14.89;46.03;98687.63;4486397;32;20118;-82
2022/10/22 06:37:37;;;;;;;13.85;5.97;;;;;;;15.00;46.02;98684.19;4486446;32;20080;-82
2022/10/22 06:40:05;;;;;;;16.15;6.53;;;;;;;15.11;44.67;98690.37;4472013;32;20492;-82
2022/10/22 06:42:31;;;;;;;16.05;6.05;;;;;;;15.21;44.09;98685.22;4486406;32;20160;-81
2022/10/22 06:44:56;;;;;;;14.05;6.40;;;;;;;15.27;43.62;98690.06;4486369;32;20100;-82
2022/10/22 06:47:21;;;;;;;13.93;6.12;;;;;;;15.40;43.15;98697.94;4485839;32;20154;-82
2022/10/22 06:49:48;;;;;;;14.52;6.25;;;;;;;15.52;42.97;98707.63;4471936;32;20156;-82
2022/10/22 06:52:17;;;;;;;14.23;6.45;;;;;;;15.44;43.20;98706.53;4473552;32;20604;-82
2022/10/22 06:54:42;;;;;;;16.02;6.68;;;;;;;15.45;43.10;98706.44;4488276;32;20107;-82
2022/10/22 06:57:08;;;;;;;16.17;7.30;;;;;;;15.68;42.80;98703.81;4488290;32;20340;-83
2022/10/22 06:59:33;;;;;;;19.83;7.20;;;;;;;15.89;41.99;98698.66;4488232;32;20159;-83
2022/10/22 07:01:58;;;;;;;14.68;6.70;;;;;;;15.77;41.95;98702.28;4488092;32;20321;-82
2022/10/22 07:04:24;;;;;;;14.30;6.07;;;;;;;15.96;41.38;98685.78;4487840;32;20080;-81
2022/10/22 07:06:54;;;;;;;15.70;6.65;;;;;;;15.97;41.92;98685.62;4487816;32;20111;-82
2022/10/22 07:09:19;;;;;;;16.83;6.65;;;;;;;16.10;41.69;98694.31;4470942;32;20165;-82
2022/10/22 07:11:45;;;;;;;12.45;6.25;;;;;;;16.14;41.52;98692.28;4472117;32;20081;-82
2022/10/22 07:14:11;;;;;;;15.60;6.93;;;;;;;16.29;41.82;98693.72;4458143;32;20506;-83
2022/10/22 07:16:37;;;;;;;13.75;6.12;;;;;;;16.25;41.69;98686.97;4472737;32;20103;-82
2022/10/22 07:19:03;;;;;;;16.92;7.10;;;;;;;16.34;41.82;98682.72;4472321;32;20125;-82
2022/10/22 07:21:30;;;;;;;15.18;6.32;;;;;;;16.42;41.61;98682.13;4471258;32;20174;-82
2022/10/22 07:23:55;;;;;;;13.82;6.40;;;;;;;16.45;41.86;98680.03;4472355;32;20097;-82
2022/10/22 07:26:23;;;;;;;15.35;6.40;;;;;;;16.40;41.97;98686.69;4472466;32;20388;-82
2022/10/22 07:28:49;;;;;;;12.88;6.25;;;;;;;16.46;42.13;98691.53;4472444;32;20124;-82
2022/10/22 07:31:15;;;;;;;16.10;6.37;;;;;;;16.54;42.18;98688.25;4472164;32;20150;-81
2022/10/22 07:33:40;;;;;;;15.15;6.85;;;;;;;16.61;41.84;98686.78;4472297;32;20112;-84
2022/10/22 07:36:08;;;;;;;16.42;6.85;;;;;;;16.71;41.94;98685.06;4471023;32;20100;-83
2022/10/22 07:38:36;;;;;;;14.82;6.93;;;;;;;16.82;41.98;98679.72;4471005;32;20124;-83
2022/10/22 07:41:02;;;;;;;14.13;6.87;;;;;;;16.90;41.78;98677.31;4457623;32;20124;-82
2022/10/22 07:43:31;;;;;;;12.98;6.45;;;;;;;16.96;41.61;98685.72;4457714;32;20153;-82
2022/10/22 07:45:58;;;;;;;16.40;7.22;;;;;;;17.00;41.35;98676.56;4472104;32;20112;-83
2022/10/22 07:48:23;;;;;;;15.00;7.80;;;;;;;16.88;41.22;98675.72;4458035;32;20126;-82
2022/10/22 07:50:50;;;;;;;15.05;7.43;;;;;;;16.84;41.40;98677.81;4470840;32;20088;-82
2022/10/22 07:53:16;;;;;;;15.55;7.75;;;;;;;16.81;41.37;98687.81;4470725;32;20132;-82
2022/10/22 07:55:41;;;;;;;15.95;7.28;;;;;;;16.76;41.22;98682.87;4470963;32;20120;-83
2022/10/22 07:58:06;;;;;;;15.02;7.50;;;;;;;16.79;41.43;98687.12;4470914;32;20151;-83
2022/10/22 08:00:32;;;;;;;20.17;8.15;;;;;;;16.84;41.54;98690.25;4471967;32;20136;-81
2022/10/22 08:02:57;;;;;;;14.95;7.22;;;;;;;16.87;41.48;98685.53;4471137;32;20106;-82
2022/10/22 08:05:23;;;;;;;18.10;7.97;;;;;;;16.92;41.52;98684.31;4471954;32;20104;-83
2022/10/22 08:07:48;;;;;;;17.70;8.25;;;;;;;16.83;41.46;98689.41;4471997;32;20124;-83
2022/10/22 08:10:13;;;;;;;17.05;8.80;;;;;;;16.92;41.62;98679.84;4487669;32;20084;-82
2022/10/22 08:12:42;;;;;;;16.17;8.00;;;;;;;16.84;41.38;98692.91;4487516;32;20072;-82
2022/10/22 08:15:08;;;;;;;16.62;7.95;;;;;;;17.07;41.09;98691.88;4487475;32;20102;-81
2022/10/22 08:17:34;;;;;;;16.62;7.62;;;;;;;17.14;40.87;98694.03;4473336;32;20138;-82
2022/10/22 08:19:59;;;;;;;16.05;7.53;;;;;;;17.31;40.35;98682.81;4487567;32;20084;-81
2022/10/22 08:22:25;;;;;;;15.02;7.97;;;;;;;17.51;40.34;98677.63;4487443;32;20112;-81
2022/10/22 08:24:50;;;;;;;17.33;8.32;;;;;;;17.56;40.40;98683.37;4487479;32;20080;-81
2022/10/22 08:27:15;;;;;;;19.75;9.57;;;;;;;17.76;40.04;98677.19;4473073;32;20109;-83
2022/10/22 08:29:41;;;;;;;16.15;8.70;;;;;;;17.97;39.63;98682.53;4487504;32;20092;-82
2022/10/22 08:32:06;;;;;;;19.48;8.07;;;;;;;18.08;38.58;98685.09;4473249;32;20107;-82
2022/10/22 08:34:32;;;;;;;19.27;8.20;;;;;;;18.24;38.16;98683.75;4487403;32;20104;-80
2022/10/22 08:36:57;;;;;;;18.17;8.07;;;;;;;18.41;38.56;98684.94;4487467;32;20116;-83
2022/10/22 08:39:23;;;;;;;17.42;8.13;;;;;;;18.50;37.58;98681.44;4473123;32;20121;-82
2022/10/22 08:42:07;;;;;;;16.10;8.82;;;;;;;18.53;37.82;98686.50;4487356;32;20144;-81
2022/10/22 08:44:32;;;;;;;16.55;8.23;;;;;;;18.72;37.50;98690.22;4487495;32;20429;-81
2022/10/22 08:47:16;;;;;;;18.80;9.05;;;;;;;18.88;37.46;98687.88;4487282;32;20104;-85
2022/10/22 08:49:42;;;;;;;16.85;8.27;;;;;;;18.64;38.06;98685.56;4487468;32;20084;-80
2022/10/22 08:52:16;;;;;;;17.40;9.10;;;;;;;18.69;38.33;98688.66;4472958;32;20102;-83
2022/10/22 08:54:58;;;;;;;20.92;8.77;;;;;;;18.74;38.22;98685.59;4473084;32;20068;-83
2022/10/22 08:57:31;;;;;;;20.42;8.85;;;;;;;18.44;38.47;98695.31;4487455;32;20104;-82
2022/10/22 09:00:04;;;;;;;19.77;9.38;;;;;;;18.52;38.46;98682.16;4473711;32;20155;-87
2022/10/22 09:02:49;;;;;;;18.33;9.02;;;;;;;18.56;39.14;98693.41;4473336;32;20096;-86
2022/10/22 09:05:34;;;;;;;17.65;8.40;;;;;;;18.63;39.29;98678.53;4487136;32;20106;-85
2022/10/22 09:07:59;;;;;;;17.85;9.02;;;;;;;18.64;39.39;98683.75;4473057;32;20089;-91
2022/10/22 09:10:29;;;;;;;16.77;9.20;;;;;;;18.63;39.71;98689.22;4483831;31;20175;-84
2022/10/22 09:12:54;;;;;;;20.80;9.40;;;;;;;18.68;39.27;98694.97;4476163;31;20084;-82
2022/10/22 09:15:20;;;;;;;19.83;9.77;;;;;;;18.60;39.07;98705.47;4472465;31;20177;-82
2022/10/22 09:18:12;;;;;;;20.05;9.40;;;;;;;18.50;39.44;98700.13;4479116;31;20807;-83
2022/10/22 09:20:46;;;;;;;19.87;9.65;;;;;;;18.49;39.57;98701.09;4471126;31;20484;-83
2022/10/22 09:23:36;;;;;;;17.05;9.55;;;;;;;18.48;39.38;98694.06;4496803;31;20104;-80
2022/10/22 09:26:14;;;;;;;18.58;9.57;;;;;;;18.47;39.66;98684.41;4494587;31;20098;-81
2022/10/22 09:28:39;;;;;;;17.70;9.30;;;;;;;18.45;39.71;98692.53;4467546;31;20190;-81
2022/10/22 09:31:12;;;;;;;20.17;10.23;;;;;;;18.45;40.11;98691.69;4487633;31;20446;-81
2022/10/22 09:33:39;;;;;;;22.25;10.48;;;;;;;18.20;40.09;98698.34;4478195;32;20085;-81
2022/10/22 09:36:06;;;;;;;21.15;10.25;;;;;;;18.25;39.69;98701.44;4479704;31;20091;-80
2022/10/22 09:38:45;;;;;;;21.80;11.35;;;;;;;18.43;39.21;98704.31;4473408;31;20088;-81
2022/10/22 09:41:12;;;;;;;20.92;10.45;;;;;;;18.53;38.97;98707.03;4466238;31;20499;-80
2022/10/22 09:43:37;;;;;;;21.50;10.85;;;;;;;18.56;39.15;98712.06;4464006;31;20099;-81
2022/10/22 09:46:13;;;;;;;19.05;9.57;;;;;;;18.63;39.01;98702.53;4476459;32;20096;-81
2022/10/22 09:48:41;;;;;;;21.12;10.00;;;;;;;18.72;39.31;98711.56;4482980;31;20104;-81
2022/10/22 09:51:21;;;;;;;20.25;10.32;;;;;;;18.64;39.58;98720.25;4474618;31;20168;-81
2022/10/22 09:53:55;;;;;;;20.65;9.93;;;;;;;18.57;39.49;98701.25;4492243;31;20096;-81
2022/10/22 09:56:27;;;;;;;19.52;10.57;;;;;;;18.74;39.91;98694.44;4483728;31;20084;-80
2022/10/22 09:58:56;;;;;;;22.55;11.00;;;;;;;18.80;39.48;98685.91;4468489;31;20221;-80
2022/10/22 10:01:25;;;;;;;21.52;9.95;;;;;;;18.96;39.43;98692.50;4475426;31;20524;-80
2022/10/22 10:03:51;;;;;;;26.62;11.65;;;;;;;19.00;39.02;98689.41;4475999;32;20167;-80
2022/10/22 10:06:20;;;;;;;22.08;11.05;;;;;;;19.03;38.74;98688.31;4461550;32;20100;-81
2022/10/22 10:08:49;;;;;;;20.20;10.68;;;;;;;19.06;38.51;98688.00;4493341;31;20156;-84
2022/10/22 10:11:28;;;;;;;20.17;9.75;;;;;;;19.13;38.22;98688.31;4491132;31;20148;-84
2022/10/22 10:14:12;;;;;;;21.08;11.12;;;;;;;19.14;38.52;98690.84;4471658;32;20097;-84
2022/10/22 10:16:46;;;;;;;22.27;10.93;;;;;;;19.18;38.41;98683.37;4474540;31;20100;-86
2022/10/22 10:19:46;;;;;;;19.73;10.57;;;;;;;19.23;38.22;98673.97;4481628;32;20128;-79
2022/10/22 10:22:41;;;;;;;20.48;10.05;;;;;;;19.33;38.38;98673.13;4474723;31;20111;-83
2022/10/22 10:25:34;;;;;;;21.92;10.10;;;;;;;19.36;38.90;98678.19;4480839;32;20096;-83
2022/10/22 10:28:08;;;;;;;20.52;11.35;;;;;;;19.52;38.74;98677.59;4473948;32;20096;-83
2022/10/22 10:30:37;;;;;;;21.58;10.23;;;;;;;19.50;38.69;98682.22;4471346;31;20112;-81
2022/10/22 10:33:08;;;;;;;20.17;11.07;;;;;;;19.55;38.47;98671.97;4461619;31;20163;-82
2022/10/22 10:36:05;;;;;;;20.80;11.23;;;;;;;19.62;38.55;98675.72;4488302;31;20127;-81
2022/10/22 10:38:46;;;;;;;18.70;10.30;;;;;;;19.71;38.26;98679.38;4472923;32;20506;-81
2022/10/22 10:41:42;;;;;;;21.10;10.65;;;;;;;19.78;38.48;98673.34;4481446;32;20140;-83
2022/10/22 10:44:34;;;;;;;20.92;10.98;;;;;;;19.70;39.00;98672.34;4480854;32;20179;-83
2022/10/22 10:47:26;;;;;;;20.30;10.60;;;;;;;19.74;38.46;98668.41;4482736;32;20139;-83
2022/10/22 10:50:04;;;;;;;21.90;10.88;;;;;;;19.72;38.96;98679.28;4487440;31;20080;-83
2022/10/22 10:52:39;;;;;;;21.33;11.40;;;;;;;19.87;38.35;98694.84;4460300;31;20100;-82
2022/10/22 10:55:41;;;;;;;21.08;11.02;;;;;;;19.89;38.63;98691.03;4482434;32;20163;-82
2022/10/22 10:58:31;;;;;;;22.37;11.73;;;;;;;20.00;38.68;98701.56;4484986;31;20096;-81
2022/10/22 11:01:05;;;;;;;21.67;11.12;;;;;;;20.08;38.43;98694.62;4488193;31;20533;-82
2022/10/22 11:03:35;;;;;;;20.08;10.90;;;;;;;20.08;38.49;98700.81;4472153;31;20135;-83
2022/10/22 11:06:06;;;;;;;24.60;11.38;;;;;;;19.94;38.87;98702.12;4486182;31;20100;-82
2022/10/22 11:08:38;;;;;;;21.75;11.60;;;;;;;20.12;38.70;98696.84;4474593;31;20490;-83
2022/10/22 11:11:26;;;;;;;19.85;11.07;;;;;;;20.17;38.35;98702.63;4473806;31;20111;-84
2022/10/22 11:13:56;;;;;;;22.17;11.60;;;;;;;20.23;38.36;98690.50;4470167;31;20156;-83
2022/10/22 11:16:42;;;;;;;22.37;12.48;;;;;;;20.19;38.91;98689.94;4473876;31;20111;-80
2022/10/22 11:19:26;;;;;;;21.08;11.60;;;;;;;19.98;39.04;98692.00;4474151;31;20110;-79
2022/10/22 11:22:04;;;;;;;21.30;11.75;;;;;;;20.04;39.36;98689.56;4487893;31;20093;-83
2022/10/22 11:25:11;;;;;;;21.50;11.73;;;;;;;19.98;39.01;98687.47;4473701;31;20121;-86
2022/10/22 11:27:46;;;;;;;23.50;11.40;;;;;;;19.96;39.07;98681.44;4485434;31;20157;-83
2022/10/22 11:30:16;;;;;;;23.77;11.48;;;;;;;19.83;39.59;98672.91;4489936;31;20162;-84
2022/10/22 11:32:44;;;;;;;21.92;12.07;;;;;;;19.77;39.83;98665.47;4491397;31;20084;-88
2022/10/22 11:35:14;;;;;;;22.02;11.90;;;;;;;19.70;40.05;98653.63;4490159;31;20152;-85
2022/10/22 11:37:41;;;;;;;24.37;11.88;;;;;;;19.75;39.54;98656.75;4473336;32;20764;-82